Time;durP1;ratioP1;P1;durP2;ratioP2;P2;SDS_P1;SDS_P2;PMS_P1;PMS_P2;Temp;Humidity;BMP_temperature;BMP_pressure;BME280_temperature;BME280_humidity;BME280_pressure;Samples;Min_cycle;Max_cycle;Signal;HPM_P1;HPM_P2
2023/08/08 00:01:29;;;;;;;1.97;1.33;;;;;;;14.76;100.00;100413.09;4986889;28;20216;-76
2023/08/08 00:03:57;;;;;;;1.10;1.00;;;;;;;14.77;100.00;100422.63;4988759;28;20687;-77
2023/08/08 00:06:25;;;;;;;2.03;1.30;;;;;;;14.80;100.00;100411.28;4984116;28;20254;-76
2023/08/08 00:08:51;;;;;;;2.80;1.33;;;;;;;14.81;100.00;100410.41;4993389;28;20219;-77
2023/08/08 00:11:16;;;;;;;1.40;1.30;;;;;;;14.84;100.00;100411.16;4987295;28;20236;-77
2023/08/08 00:13:41;;;;;;;1.30;1.20;;;;;;;14.87;100.00;100405.88;4986438;28;20181;-77
2023/08/08 00:16:07;;;;;;;1.33;1.23;;;;;;;14.92;100.00;100410.97;4988368;28;20191;-77
2023/08/08 00:18:32;;;;;;;1.40;1.30;;;;;;;14.94;100.00;100399.63;4985215;28;20239;-77
2023/08/08 00:20:57;;;;;;;1.60;1.10;;;;;;;14.99;100.00;100406.47;4991555;28;20220;-78
2023/08/08 00:23:23;;;;;;;1.50;1.40;;;;;;;14.99;100.00;100403.88;4988098;28;20215;-79
2023/08/08 00:25:50;;;;;;;1.30;1.20;;;;;;;15.01;100.00;100404.69;5010665;28;20552;-80
2023/08/08 00:28:16;;;;;;;2.03;1.50;;;;;;;15.03;100.00;100408.13;4999796;28;20286;-78
2023/08/08 00:30:43;;;;;;;1.90;1.20;;;;;;;15.07;100.00;100412.31;5007335;28;20266;-77
2023/08/08 00:33:08;;;;;;;1.90;1.70;;;;;;;15.11;100.00;100400.09;4989215;28;20200;-77
2023/08/08 00:35:33;;;;;;;1.60;1.23;;;;;;;15.14;100.00;100395.66;4994977;28;20210;-79
2023/08/08 00:37:59;;;;;;;2.13;1.43;;;;;;;15.16;100.00;100396.47;4985988;28;20621;-78
2023/08/08 00:40:24;;;;;;;1.50;1.40;;;;;;;15.18;100.00;100405.09;4999694;28;20239;-77
2023/08/08 00:42:49;;;;;;;1.83;1.47;;;;;;;15.22;100.00;100392.84;4998157;28;21010;-77
2023/08/08 00:45:15;;;;;;;1.27;1.17;;;;;;;15.23;100.00;100394.56;4989643;28;20216;-77
2023/08/08 00:47:40;;;;;;;1.40;1.30;;;;;;;15.24;100.00;100388.44;4993663;28;20196;-78
2023/08/08 00:50:08;;;;;;;1.43;1.33;;;;;;;15.27;100.00;100390.09;4991273;28;20221;-80
2023/08/08 00:52:34;;;;;;;1.80;1.40;;;;;;;15.27;100.00;100392.72;4996822;28;20268;-78
2023/08/08 00:54:59;;;;;;;1.17;1.07;;;;;;;15.27;100.00;100390.97;4997847;28;20675;-77
2023/08/08 00:57:25;;;;;;;2.07;1.10;;;;;;;15.24;100.00;100388.44;4991566;28;20547;-77
2023/08/08 00:59:51;;;;;;;1.10;1.00;;;;;;;15.23;100.00;100389.34;4989939;28;20217;-80
2023/08/08 01:02:16;;;;;;;1.20;1.00;;;;;;;15.21;100.00;100383.31;4989340;28;20557;-78
2023/08/08 01:04:42;;;;;;;1.30;1.10;;;;;;;15.19;100.00;100385.09;4983666;28;20303;-78
2023/08/08 01:07:22;;;;;;;1.33;1.23;;;;;;;15.14;100.00;100381.75;4984235;28;20667;-78
2023/08/08 01:10:08;;;;;;;1.67;1.30;;;;;;;15.08;100.00;100374.94;5002447;28;20219;-76
2023/08/08 01:12:42;;;;;;;1.10;1.00;;;;;;;15.02;100.00;100380.34;4990789;28;20176;-77
2023/08/08 01:15:08;;;;;;;0.90;0.90;;;;;;;14.95;100.00;100379.63;4984395;28;20272;-78
2023/08/08 01:17:36;;;;;;;1.53;1.27;;;;;;;14.89;100.00;100383.25;4987843;28;20235;-78
2023/08/08 01:20:09;;;;;;;1.30;1.20;;;;;;;14.85;100.00;100378.13;4981386;28;20212;-77
2023/08/08 01:22:50;;;;;;;1.53;1.43;;;;;;;14.81;100.00;100376.53;5001790;28;20264;-77
2023/08/08 01:25:16;;;;;;;1.50;1.40;;;;;;;14.77;100.00;100383.53;4986092;28;20212;-80
2023/08/08 01:27:42;;;;;;;1.30;1.20;;;;;;;14.74;100.00;100379.28;4984211;28;20188;-79
2023/08/08 01:30:08;;;;;;;1.23;1.13;;;;;;;14.72;100.00;100375.84;4981599;28;20211;-78
2023/08/08 01:32:34;;;;;;;1.27;1.17;;;;;;;14.72;100.00;100375.84;4988904;28;20196;-76
2023/08/08 01:34:59;;;;;;;2.40;1.10;;;;;;;14.73;100.00;100374.97;5009117;28;20185;-79
2023/08/08 01:37:32;;;;;;;1.80;1.30;;;;;;;14.74;100.00;100370.63;4985493;28;20893;-77
2023/08/08 01:40:02;;;;;;;1.30;1.20;;;;;;;14.75;100.00;100372.31;5002108;28;20212;-77
2023/08/08 01:42:28;;;;;;;2.17;1.37;;;;;;;14.76;100.00;100368.81;4988744;28;20188;-77
2023/08/08 01:44:55;;;;;;;1.60;1.50;;;;;;;14.76;100.00;100369.69;5003411;28;20274;-77
2023/08/08 01:47:20;;;;;;;1.50;1.40;;;;;;;14.75;100.00;100375.78;4984765;28;20820;-80
2023/08/08 01:49:48;;;;;;;1.30;1.20;;;;;;;14.73;100.00;100367.16;5001429;28;20223;-79
2023/08/08 01:52:14;;;;;;;2.60;1.20;;;;;;;14.70;100.00;100372.41;4991705;28;20188;-77
2023/08/08 01:54:40;;;;;;;1.70;1.33;;;;;;;14.67;100.00;100367.25;4985430;28;20187;-77
2023/08/08 01:57:05;;;;;;;1.30;1.20;;;;;;;14.62;100.00;100367.38;4982500;28;21012;-77
2023/08/08 01:59:30;;;;;;;1.40;1.30;;;;;;;14.60;100.00;100376.13;5003536;28;20187;-79
2023/08/08 02:01:58;;;;;;;1.50;1.40;;;;;;;14.56;100.00;100377.09;4987083;28;20964;-77
2023/08/08 02:04:24;;;;;;;1.50;1.40;;;;;;;14.54;100.00;100376.25;4990725;28;20667;-77
2023/08/08 02:06:52;;;;;;;1.83;1.27;;;;;;;14.50;100.00;100372.88;5002658;28;20191;-78
2023/08/08 02:09:17;;;;;;;1.17;1.07;;;;;;;14.48;100.00;100375.53;4984430;28;20190;-77
2023/08/08 02:11:42;;;;;;;1.50;1.40;;;;;;;14.48;100.00;100367.72;4990916;28;20247;-77
2023/08/08 02:14:08;;;;;;;1.50;1.40;;;;;;;14.48;100.00;100369.44;4992249;28;20187;-77
2023/08/08 02:16:34;;;;;;;1.33;1.23;;;;;;;14.50;100.00;100365.06;4989772;28;20178;-77
2023/08/08 02:19:00;;;;;;;1.93;1.50;;;;;;;14.52;100.00;100367.66;4990589;28;20195;-79
2023/08/08 02:21:25;;;;;;;1.83;1.73;;;;;;;14.53;100.00;100366.72;4985075;28;20290;-81
2023/08/08 02:23:50;;;;;;;1.20;1.10;;;;;;;14.54;100.00;100377.13;4991542;28;20263;-80
2023/08/08 02:26:16;;;;;;;1.50;1.40;;;;;;;14.55;100.00;100362.34;4984109;28;20198;-79
2023/08/08 02:28:41;;;;;;;1.53;1.43;;;;;;;14.56;100.00;100364.06;4988760;28;20211;-79
2023/08/08 02:31:09;;;;;;;2.70;1.30;;;;;;;14.57;100.00;100368.38;4991846;28;20235;-79
2023/08/08 02:33:34;;;;;;;2.13;1.70;;;;;;;14.59;100.00;100364.00;4986357;28;20663;-77
2023/08/08 02:36:00;;;;;;;1.53;1.30;;;;;;;14.59;100.00;100367.47;4992439;28;20192;-78
2023/08/08 02:38:25;;;;;;;1.70;1.60;;;;;;;14.62;100.00;100366.53;5003014;28;20189;-79
2023/08/08 02:40:50;;;;;;;1.50;1.30;;;;;;;14.64;100.00;100360.38;5005516;28;20218;-82
2023/08/08 02:43:16;;;;;;;2.80;1.80;;;;;;;14.67;100.00;100358.59;4984879;28;20213;-80
2023/08/08 02:45:41;;;;;;;1.77;1.43;;;;;;;14.69;100.00;100365.50;4993389;28;20191;-79
2023/08/08 02:48:07;;;;;;;2.20;1.30;;;;;;;14.71;100.00;100353.28;5007163;28;20187;-80
2023/08/08 02:50:32;;;;;;;2.00;1.57;;;;;;;14.73;100.00;100361.94;4998883;28;20216;-80
2023/08/08 02:53:00;;;;;;;1.80;1.70;;;;;;;14.76;100.00;100363.59;4995758;28;20182;-78
2023/08/08 02:55:26;;;;;;;1.77;1.67;;;;;;;14.76;100.00;100372.28;4989191;28;20185;-78
2023/08/08 02:57:51;;;;;;;1.50;1.40;;;;;;;14.76;100.00;100372.28;4984830;28;20275;-81
2023/08/08 03:00:19;;;;;;;1.63;1.53;;;;;;;14.75;100.00;100373.19;4989943;28;20218;-77
2023/08/08 03:02:44;;;;;;;1.70;1.60;;;;;;;14.75;100.00;100381.00;5008422;28;20623;-77
2023/08/08 03:05:09;;;;;;;1.90;1.47;;;;;;;14.72;100.00;100373.25;4991635;28;20208;-77
2023/08/08 03:07:35;;;;;;;2.07;1.60;;;;;;;14.71;100.00;100374.13;4990025;28;20252;-79
2023/08/08 03:10:01;;;;;;;1.90;1.73;;;;;;;14.70;100.00;100375.03;4993757;28;20610;-79
2023/08/08 03:12:26;;;;;;;1.97;1.83;;;;;;;14.69;100.00;100372.47;5000456;28;20193;-79
2023/08/08 03:14:54;;;;;;;1.63;1.53;;;;;;;14.67;100.00;100366.41;5006458;28;20493;-81
2023/08/08 03:17:20;;;;;;;2.67;1.60;;;;;;;14.65;100.00;100374.28;4990898;28;20232;-78
2023/08/08 03:19:45;;;;;;;1.40;1.30;;;;;;;14.64;100.00;100364.75;4992250;28;20215;-77
2023/08/08 03:22:10;;;;;;;2.27;1.60;;;;;;;14.62;100.00;100380.38;4988061;28;20667;-80
2023/08/08 03:24:38;;;;;;;1.60;1.50;;;;;;;14.63;100.00;100370.84;4991027;28;20253;-80
2023/08/08 03:27:03;;;;;;;1.73;1.57;;;;;;;14.62;100.00;100375.19;4992435;28;21031;-78
2023/08/08 03:29:29;;;;;;;1.67;1.20;;;;;;;14.64;100.00;100376.00;4987480;28;20260;-77
2023/08/08 03:31:57;;;;;;;1.70;1.50;;;;;;;14.64;100.00;100378.59;4985195;28;20188;-77
2023/08/08 03:34:22;;;;;;;1.60;1.50;;;;;;;14.67;100.00;100379.44;4987746;28;20182;-77
2023/08/08 03:36:47;;;;;;;1.60;1.30;;;;;;;14.65;100.00;100379.47;5001469;28;20535;-78
2023/08/08 03:39:13;;;;;;;2.23;1.77;;;;;;;14.64;100.00;100375.16;4995145;28;20192;-79
2023/08/08 03:41:38;;;;;;;1.53;1.43;;;;;;;14.62;100.00;100382.16;4986772;28;20262;-79
2023/08/08 03:44:04;;;;;;;1.77;1.57;;;;;;;14.60;100.00;100387.38;4987917;28;20218;-78
2023/08/08 03:46:30;;;;;;;2.03;1.83;;;;;;;14.57;100.00;100382.28;4985653;28;20217;-78
2023/08/08 03:48:58;;;;;;;1.60;1.50;;;;;;;14.53;100.00;100391.03;4989913;28;20233;-77
2023/08/08 03:51:23;;;;;;;2.07;1.70;;;;;;;14.50;100.00;100377.25;4987731;28;20279;-76
2023/08/08 03:53:48;;;;;;;3.27;1.70;;;;;;;14.51;100.00;100382.41;4991457;28;20661;-79
2023/08/08 03:56:14;;;;;;;2.10;1.40;;;;;;;14.49;100.00;100389.41;4989768;28;20209;-80
2023/08/08 03:58:39;;;;;;;2.67;1.90;;;;;;;14.48;100.00;100379.88;4993662;28;20188;-80
2023/08/08 04:01:10;;;;;;;1.47;1.37;;;;;;;14.48;100.00;100370.31;5006862;28;20227;-82
2023/08/08 04:03:38;;;;;;;3.10;1.63;;;;;;;14.48;100.00;100377.25;4990876;28;20231;-80
2023/08/08 04:06:04;;;;;;;2.03;1.77;;;;;;;14.46;100.00;100363.41;4992910;28;20703;-80
2023/08/08 04:08:29;;;;;;;1.70;1.60;;;;;;;14.43;100.00;100361.75;4990503;28;20193;-80
2023/08/08 04:10:55;;;;;;;3.03;1.70;;;;;;;14.42;100.00;100361.81;4997405;28;20271;-80
2023/08/08 04:13:20;;;;;;;1.87;1.70;;;;;;;14.43;100.00;100363.53;4992616;28;20214;-82
2023/08/08 04:15:51;;;;;;;2.20;2.00;;;;;;;14.44;100.00;100371.28;4997222;28;20218;-84
2023/08/08 04:18:20;;;;;;;3.77;1.80;;;;;;;14.45;100.00;100379.94;5009170;28;20173;-80
2023/08/08 04:20:47;;;;;;;1.90;1.47;;;;;;;14.45;100.00;100385.13;5008048;28;20582;-79
2023/08/08 04:23:13;;;;;;;3.27;1.87;;;;;;;14.46;100.00;100379.91;4987267;28;20190;-77
2023/08/08 04:25:41;;;;;;;2.40;1.93;;;;;;;14.45;100.00;100380.81;4982132;28;20227;-78
2023/08/08 04:28:06;;;;;;;3.50;1.77;;;;;;;14.49;100.00;100386.78;5003417;28;20869;-80
2023/08/08 04:30:32;;;;;;;2.13;1.60;;;;;;;14.54;100.00;100400.56;4987866;28;20220;-79
2023/08/08 04:32:57;;;;;;;3.13;2.10;;;;;;;14.59;100.00;100396.13;4988895;28;20263;-81
2023/08/08 04:35:23;;;;;;;1.80;1.70;;;;;;;14.68;100.00;100387.22;5008054;28;20226;-79
2023/08/08 04:37:48;;;;;;;1.67;1.40;;;;;;;14.75;100.00;100399.22;4988976;28;20524;-80
2023/08/08 04:40:22;;;;;;;1.60;1.50;;;;;;;14.80;100.00;100400.88;4991341;28;20215;-80
2023/08/08 04:42:48;;;;;;;1.70;1.60;;;;;;;14.82;100.00;100399.09;4989285;28;20191;-80
2023/08/08 04:45:14;;;;;;;1.67;1.40;;;;;;;14.84;100.00;100405.97;4988610;28;20202;-80
2023/08/08 04:47:39;;;;;;;1.80;1.70;;;;;;;14.84;100.00;100405.97;5007877;28;20275;-79
2023/08/08 04:50:05;;;;;;;2.27;1.40;;;;;;;14.85;100.00;100404.19;4992976;28;20201;-79
2023/08/08 04:52:30;;;;;;;1.90;1.73;;;;;;;14.88;100.00;100397.19;5004987;28;20227;-77
2023/08/08 04:54:58;;;;;;;1.63;1.40;;;;;;;14.93;100.00;100399.66;5007900;28;20215;-78
2023/08/08 04:57:23;;;;;;;2.20;1.70;;;;;;;14.98;100.00;100404.75;4983749;28;20268;-77
2023/08/08 04:59:49;;;;;;;2.37;1.40;;;;;;;15.03;100.00;100408.94;4985780;28;20299;-77
2023/08/08 05:02:14;;;;;;;2.20;1.40;;;;;;;15.09;100.00;100397.50;4981837;28;20207;-80
2023/08/08 05:04:39;;;;;;;3.07;1.70;;;;;;;15.12;100.00;100392.22;4985562;28;20205;-77
2023/08/08 05:07:06;;;;;;;2.53;1.70;;;;;;;15.13;100.00;100393.94;4984736;28;20558;-79
2023/08/08 05:09:31;;;;;;;2.27;1.90;;;;;;;15.13;100.00;100396.53;4982254;28;20220;-79
2023/08/08 05:11:57;;;;;;;2.17;1.60;;;;;;;15.15;100.00;100396.50;4997235;28;20240;-79
2023/08/08 05:14:22;;;;;;;2.00;1.63;;;;;;;15.19;100.00;100406.81;4983819;28;20196;-78
2023/08/08 05:16:47;;;;;;;1.57;1.47;;;;;;;15.21;100.00;100398.94;4987716;28;20703;-77
2023/08/08 05:19:13;;;;;;;1.70;1.60;;;;;;;15.25;100.00;100403.19;4994810;28;20216;-80
2023/08/08 05:21:38;;;;;;;1.40;1.30;;;;;;;15.29;100.00;100401.34;4998794;28;20255;-77
2023/08/08 05:24:04;;;;;;;2.10;1.37;;;;;;;15.36;100.00;100408.97;4984346;28;20743;-77
2023/08/08 05:26:29;;;;;;;1.60;1.50;;;;;;;15.49;100.00;100412.13;4982562;28;20201;-79
2023/08/08 05:28:55;;;;;;;1.40;1.30;;;;;;;15.61;100.00;100407.44;4983104;28;20199;-78
2023/08/08 05:31:20;;;;;;;1.70;1.60;;;;;;;15.72;100.00;100407.16;4980954;28;20220;-80
2023/08/08 05:33:47;;;;;;;2.50;1.90;;;;;;;15.94;100.00;100396.97;4984143;28;20186;-79
2023/08/08 05:36:13;;;;;;;2.37;1.90;;;;;;;16.35;100.00;100397.47;4983071;28;20424;-77
2023/08/08 05:38:41;;;;;;;1.67;1.47;;;;;;;16.87;100.00;100389.69;4984178;28;20201;-77
2023/08/08 05:41:07;;;;;;;3.63;1.93;;;;;;;17.37;96.87;100388.88;4981236;28;20212;-77
2023/08/08 05:43:33;;;;;;;2.40;1.47;;;;;;;17.76;93.79;100391.88;4981731;28;20607;-77
2023/08/08 05:45:58;;;;;;;1.60;1.40;;;;;;;18.29;92.43;100385.50;4981863;28;20280;-78
2023/08/08 05:48:23;;;;;;;2.50;1.50;;;;;;;19.07;89.96;100396.34;4983415;28;20283;-78
2023/08/08 05:50:49;;;;;;;1.67;1.40;;;;;;;19.37;87.05;100402.94;5000203;28;20205;-78
2023/08/08 05:53:14;;;;;;;1.50;1.40;;;;;;;19.99;85.97;100402.81;4981444;28;20216;-78
2023/08/08 05:55:42;;;;;;;2.57;1.37;;;;;;;20.24;83.35;100392.88;4996086;28;20944;-77
2023/08/08 05:58:07;;;;;;;1.90;1.30;;;;;;;20.95;81.40;100392.97;4981543;28;20189;-79
2023/08/08 06:00:33;;;;;;;1.00;0.80;;;;;;;21.40;80.91;100395.94;4986491;28;20300;-81
2023/08/08 06:02:58;;;;;;;1.57;1.10;;;;;;;21.77;79.53;100392.22;4995030;28;20201;-80
2023/08/08 06:05:24;;;;;;;2.10;1.30;;;;;;;21.91;77.14;100388.00;4980349;28;20205;-81
2023/08/08 06:07:50;;;;;;;1.67;1.30;;;;;;;22.53;75.66;100395.94;4982489;28;20189;-81
2023/08/08 06:10:18;;;;;;;1.73;1.40;;;;;;;22.47;74.38;100392.81;4981806;28;20220;-81
2023/08/08 06:12:43;;;;;;;2.53;1.50;;;;;;;22.62;74.68;100388.44;4997234;28;20197;-81
2023/08/08 06:15:12;;;;;;;1.93;1.10;;;;;;;23.06;74.00;100394.69;4985967;28;20230;-80
2023/08/08 06:17:38;;;;;;;1.63;1.27;;;;;;;23.39;73.53;100391.81;4980955;28;20186;-80
2023/08/08 06:20:04;;;;;;;1.10;0.80;;;;;;;23.70;72.46;100400.47;4996923;28;20225;-79
2023/08/08 06:22:30;;;;;;;1.63;1.27;;;;;;;23.75;71.32;100400.19;4982896;28;20231;-82
2023/08/08 06:24:55;;;;;;;2.25;1.40;;;;;;;23.74;69.95;100401.16;4997524;28;20776;-81
2023/08/08 06:27:20;;;;;;;1.97;1.17;;;;;;;24.05;69.29;100394.81;4987791;28;20192;-82
2023/08/08 06:29:46;;;;;;;1.90;1.48;;;;;;;23.73;70.37;100397.66;4980602;28;20194;-82
2023/08/08 06:32:11;;;;;;;2.13;1.30;;;;;;;23.44;70.48;100391.56;4986675;28;20224;-79
2023/08/08 06:34:38;;;;;;;1.35;1.25;;;;;;;23.65;70.37;100394.66;4979164;28;20193;-81
2023/08/08 06:37:04;;;;;;;1.42;1.33;;;;;;;23.67;71.07;100398.03;4981078;28;20198;-82
2023/08/08 06:39:32;;;;;;;2.13;1.50;;;;;;;23.75;70.09;100386.97;4982023;28;20190;-79
2023/08/08 06:41:57;;;;;;;2.35;1.23;;;;;;;23.81;70.72;100386.59;4979196;28;20196;-79
2023/08/08 06:44:23;;;;;;;2.40;1.80;;;;;;;23.35;70.50;100385.03;4976527;28;20212;-77
2023/08/08 06:46:48;;;;;;;2.28;1.30;;;;;;;23.26;70.31;100386.44;4977911;28;20284;-78
2023/08/08 06:49:14;;;;;;;2.35;1.50;;;;;;;23.02;70.28;100391.38;4976346;28;20185;-80
2023/08/08 06:51:39;;;;;;;1.20;1.10;;;;;;;23.10;71.92;100390.94;4994321;28;20210;-79
2023/08/08 06:54:05;;;;;;;2.83;1.50;;;;;;;22.82;71.35;100388.13;4980658;28;20188;-77
2023/08/08 06:56:30;;;;;;;1.13;1.02;;;;;;;22.67;71.97;100381.13;4979118;28;20276;-78
2023/08/08 06:58:55;;;;;;;2.50;1.48;;;;;;;22.48;72.21;100378.69;4980774;28;20271;-78
2023/08/08 07:01:21;;;;;;;1.50;1.10;;;;;;;22.28;71.80;100375.38;4976060;28;20331;-78
2023/08/08 07:03:49;;;;;;;1.23;1.13;;;;;;;22.00;73.45;100379.56;4994495;28;20327;-79
2023/08/08 07:06:18;;;;;;;1.80;1.20;;;;;;;21.23;75.01;100378.38;4977249;28;20205;-76
2023/08/08 07:08:43;;;;;;;2.10;1.27;;;;;;;21.87;74.71;100375.91;4976590;28;20197;-77
2023/08/08 07:11:08;;;;;;;1.80;1.10;;;;;;;22.22;74.05;100373.94;4991755;28;20209;-78
2023/08/08 07:13:34;;;;;;;2.57;1.40;;;;;;;22.02;75.21;100379.47;4991111;28;20193;-77
2023/08/08 07:15:59;;;;;;;1.40;1.00;;;;;;;22.35;73.07;100374.09;4976713;28;20201;-78
2023/08/08 07:18:25;;;;;;;1.50;1.10;;;;;;;22.69;72.63;100372.16;4976804;28;20226;-78
2023/08/08 07:20:53;;;;;;;2.17;1.40;;;;;;;22.92;72.51;100377.03;4990379;28;20217;-76
2023/08/08 07:23:18;;;;;;;1.10;1.00;;;;;;;23.26;72.05;100373.25;4977719;28;20730;-78
2023/08/08 07:25:45;;;;;;;1.70;1.20;;;;;;;23.75;71.16;100377.28;4978253;28;20201;-76
2023/08/08 07:28:10;;;;;;;2.90;1.00;;;;;;;23.89;69.61;100375.56;4991791;28;20745;-78
2023/08/08 07:30:36;;;;;;;1.30;1.13;;;;;;;24.40;67.97;100363.53;4976524;28;20220;-76
2023/08/08 07:33:02;;;;;;;1.35;1.08;;;;;;;24.71;67.35;100362.34;4977924;28;20217;-78
2023/08/08 07:35:27;;;;;;;1.20;1.10;;;;;;;24.41;67.51;100365.22;4993764;28;20185;-78
2023/08/08 07:37:55;;;;;;;1.05;1.00;;;;;;;24.41;67.12;100365.22;4995703;28;20188;-78
2023/08/08 07:40:21;;;;;;;1.52;1.20;;;;;;;24.38;67.60;100365.41;4995288;28;20201;-77
2023/08/08 07:42:48;;;;;;;1.58;1.27;;;;;;;24.72;67.32;100363.22;4980071;28;20835;-77
2023/08/08 07:45:13;;;;;;;1.20;1.10;;;;;;;24.70;67.11;100367.75;4981276;28;20209;-78
2023/08/08 07:47:38;;;;;;;1.80;1.50;;;;;;;25.02;65.98;100370.84;4995690;28;20191;-79
2023/08/08 07:50:04;;;;;;;2.53;1.35;;;;;;;25.19;65.80;100364.38;4994302;28;20646;-79
2023/08/08 07:52:30;;;;;;;2.10;1.60;;;;;;;25.30;66.05;100368.94;4976611;28;20197;-77
2023/08/08 07:54:58;;;;;;;2.40;2.20;;;;;;;25.17;66.55;100368.09;4978302;28;20244;-77
2023/08/08 07:57:26;;;;;;;3.05;1.90;;;;;;;25.38;66.41;100365.75;4978978;28;20513;-78
2023/08/08 07:59:51;;;;;;;2.53;1.58;;;;;;;25.62;65.35;100371.16;4976070;28;20325;-78
2023/08/08 08:02:16;;;;;;;2.85;1.27;;;;;;;25.48;65.67;100366.00;4978198;28;20231;-78
2023/08/08 08:04:42;;;;;;;2.38;2.15;;;;;;;25.54;66.50;100369.03;4979043;28;20231;-80
2023/08/08 08:07:08;;;;;;;2.85;2.58;;;;;;;25.81;66.21;100365.38;4977390;28;20193;-78
2023/08/08 08:09:33;;;;;;;3.05;2.70;;;;;;;25.94;65.88;100356.56;4978556;28;20211;-78
2023/08/08 08:11:58;;;;;;;2.80;1.90;;;;;;;25.93;65.67;100361.00;4977858;28;20201;-79
2023/08/08 08:14:24;;;;;;;1.73;1.48;;;;;;;26.04;64.73;100362.88;4977042;28;20182;-79
2023/08/08 08:16:49;;;;;;;1.58;1.20;;;;;;;24.94;66.23;100357.31;4976398;28;20292;-78
2023/08/08 08:19:17;;;;;;;1.48;1.35;;;;;;;25.32;65.98;100355.59;4977055;28;20189;-79
2023/08/08 08:21:43;;;;;;;1.80;1.40;;;;;;;25.62;64.51;100362.38;4975001;28;20200;-80
2023/08/08 08:24:08;;;;;;;2.13;1.27;;;;;;;25.80;64.53;100361.03;4978678;28;20220;-79
2023/08/08 08:26:36;;;;;;;1.73;1.25;;;;;;;25.97;64.22;100358.97;4976206;28;20284;-79
2023/08/08 08:29:02;;;;;;;2.40;1.10;;;;;;;26.14;63.15;100347.16;4977283;28;20193;-78
2023/08/08 08:31:28;;;;;;;2.35;1.20;;;;;;;25.99;62.98;100354.41;4974832;28;21322;-79
2023/08/08 08:33:55;;;;;;;1.88;1.20;;;;;;;25.94;63.73;100352.09;4993396;28;20624;-79
2023/08/08 08:36:21;;;;;;;1.67;1.40;;;;;;;25.55;63.93;100346.06;4978618;28;20201;-79
2023/08/08 08:38:46;;;;;;;1.87;1.47;;;;;;;25.51;64.34;100350.72;4977359;28;20189;-78
2023/08/08 08:41:19;;;;;;;1.90;1.37;;;;;;;25.23;64.90;100347.34;4979644;28;20251;-80
2023/08/08 08:43:44;;;;;;;1.43;1.20;;;;;;;25.00;65.09;100342.81;4980872;28;20212;-78
2023/08/08 08:46:11;;;;;;;1.43;1.03;;;;;;;24.72;65.27;100337.59;4981042;28;20219;-78
2023/08/08 08:48:37;;;;;;;1.30;1.20;;;;;;;24.55;66.17;100340.47;4983236;28;20189;-78
2023/08/08 08:51:02;;;;;;;1.17;1.00;;;;;;;24.47;67.07;100346.28;4996851;28;20205;-78
2023/08/08 08:53:31;;;;;;;2.07;1.10;;;;;;;24.39;67.18;100336.22;4997850;28;20197;-79
2023/08/08 08:56:00;;;;;;;2.50;1.20;;;;;;;24.31;67.56;100342.00;4981124;28;20672;-78
2023/08/08 08:58:27;;;;;;;1.27;1.17;;;;;;;24.08;68.34;100337.41;4982323;28;20188;-80
2023/08/08 09:00:54;;;;;;;1.40;1.00;;;;;;;24.12;68.58;100337.09;4982217;28;20676;-79
2023/08/08 09:03:19;;;;;;;1.97;1.30;;;;;;;24.07;68.54;100331.25;4977393;28;20212;-79
2023/08/08 09:05:45;;;;;;;1.50;1.20;;;;;;;24.02;68.75;100328.91;4978953;28;20709;-79
2023/08/08 09:08:11;;;;;;;0.97;0.90;;;;;;;23.99;68.83;100330.91;4982145;28;20280;-78
2023/08/08 09:10:38;;;;;;;2.00;1.10;;;;;;;23.96;69.08;100334.59;4995404;28;20204;-78
2023/08/08 09:13:03;;;;;;;2.70;1.20;;;;;;;23.57;70.33;100337.03;4995247;28;20189;-77
2023/08/08 09:15:33;;;;;;;2.20;1.10;;;;;;;23.70;70.12;100337.06;4978502;28;20239;-79
2023/08/08 09:17:59;;;;;;;1.37;1.20;;;;;;;23.73;69.74;100333.41;4991560;28;20554;-78
2023/08/08 09:20:29;;;;;;;1.27;1.17;;;;;;;23.68;69.74;100333.69;4977328;28;20209;-77
2023/08/08 09:22:55;;;;;;;2.00;1.20;;;;;;;23.77;69.35;100331.41;4977181;28;20201;-80
2023/08/08 09:25:20;;;;;;;1.93;1.43;;;;;;;23.81;68.42;100327.63;4978410;28;20696;-77
2023/08/08 09:27:46;;;;;;;1.87;1.30;;;;;;;23.72;68.25;100319.34;4978391;28;20194;-79
2023/08/08 09:30:14;;;;;;;3.03;0.97;;;;;;;23.69;69.08;100318.69;4981558;28;20911;-78
2023/08/08 09:32:43;;;;;;;2.23;1.57;;;;;;;23.70;68.71;100323.88;4995316;28;20188;-78
2023/08/08 09:35:09;;;;;;;2.00;1.30;;;;;;;23.58;68.50;100327.28;4977196;28;20189;-79
2023/08/08 09:37:38;;;;;;;1.73;1.17;;;;;;;23.51;68.06;100328.63;4979126;28;20197;-76
2023/08/08 09:40:07;;;;;;;3.00;1.47;;;;;;;23.46;69.30;100318.34;4976132;28;20308;-78
2023/08/08 09:42:33;;;;;;;2.30;1.50;;;;;;;23.50;69.02;100324.28;4980958;28;20217;-77
2023/08/08 09:44:59;;;;;;;2.27;1.37;;;;;;;23.53;69.37;100317.03;4977318;28;20335;-77
2023/08/08 09:47:30;;;;;;;5.90;1.67;;;;;;;23.42;69.23;100311.56;4982023;28;20272;-77
2023/08/08 09:49:58;;;;;;;4.47;1.90;;;;;;;23.47;70.56;100312.09;4979471;28;20233;-78
2023/08/08 09:52:25;;;;;;;2.20;1.30;;;;;;;23.60;71.39;100317.47;4977313;28;20399;-78
2023/08/08 09:54:51;;;;;;;2.47;1.33;;;;;;;23.79;68.97;100308.38;4979533;28;20192;-77
2023/08/08 09:57:21;;;;;;;4.17;1.50;;;;;;;23.47;68.77;100313.91;4994527;28;20371;-77
2023/08/08 09:59:47;;;;;;;3.17;1.50;;;;;;;23.63;69.24;100305.84;4980495;28;20185;-79
2023/08/08 10:02:14;;;;;;;2.17;1.40;;;;;;;23.77;69.23;100307.63;4978627;28;20544;-77
2023/08/08 10:04:41;;;;;;;2.07;1.50;;;;;;;23.83;68.33;100299.28;4978979;28;20205;-77
2023/08/08 10:07:06;;;;;;;1.50;1.40;;;;;;;23.91;68.48;100297.00;4980442;28;20193;-77
2023/08/08 10:09:33;;;;;;;1.33;1.20;;;;;;;24.15;69.43;100299.88;4978620;28;20210;-78
2023/08/08 10:11:59;;;;;;;2.23;1.30;;;;;;;24.32;69.10;100298.75;4976930;28;20192;-78
2023/08/08 10:14:32;;;;;;;1.70;1.50;;;;;;;24.34;70.12;100299.50;4979480;28;20190;-78
2023/08/08 10:16:58;;;;;;;2.57;1.27;;;;;;;24.51;69.32;100300.16;4992361;28;20200;-78
2023/08/08 10:19:23;;;;;;;2.73;1.20;;;;;;;24.46;68.30;100295.19;4977853;28;20276;-78
2023/08/08 10:21:56;;;;;;;1.80;1.37;;;;;;;24.33;68.18;100292.50;4976034;28;20308;-78
2023/08/08 10:24:22;;;;;;;1.63;1.07;;;;;;;24.69;67.05;100290.13;4994314;28;20252;-78
2023/08/08 10:26:59;;;;;;;2.90;1.20;;;;;;;24.82;66.13;100290.16;4993850;28;20327;-78
2023/08/08 10:29:29;;;;;;;1.87;1.07;;;;;;;24.96;65.01;100284.75;4980357;28;20220;-78
2023/08/08 10:32:01;;;;;;;3.80;1.30;;;;;;;25.02;65.02;100282.66;4980817;28;20204;-79
2023/08/08 10:34:46;;;;;;;1.50;1.40;;;;;;;25.12;64.22;100289.00;4980728;28;20217;-77
2023/08/08 10:37:13;;;;;;;5.40;1.30;;;;;;;25.09;65.37;100284.75;4980738;28;20185;-78
2023/08/08 10:40:11;;;;;;;1.50;1.23;;;;;;;24.93;64.57;100282.31;4994095;28;20697;-78
2023/08/08 10:42:44;;;;;;;1.20;1.00;;;;;;;24.90;64.99;100285.19;4970065;28;20252;-78
2023/08/08 10:45:14;;;;;;;2.13;1.00;;;;;;;24.90;65.14;100279.88;4991916;28;20570;-77
2023/08/08 10:47:40;;;;;;;1.30;1.10;;;;;;;24.79;64.04;100280.66;4980479;28;20216;-79
2023/08/08 10:50:11;;;;;;;1.97;1.10;;;;;;;24.63;62.84;100287.91;4979924;28;20217;-78
2023/08/08 10:52:52;;;;;;;1.00;0.90;;;;;;;24.56;62.21;100276.91;4991044;28;20170;-78
2023/08/08 10:55:21;;;;;;;1.57;1.10;;;;;;;24.54;62.65;100281.44;4978772;28;20193;-77
2023/08/08 10:57:59;;;;;;;3.07;0.97;;;;;;;24.51;62.44;100286.94;4981631;28;20303;-79
2023/08/08 11:00:27;;;;;;;1.50;1.03;;;;;;;24.46;62.87;100283.75;4977892;28;20262;-78
2023/08/08 11:02:55;;;;;;;1.10;0.90;;;;;;;24.50;62.66;100282.59;4993774;28;20208;-78
2023/08/08 11:05:22;;;;;;;1.67;1.10;;;;;;;24.40;61.43;100286.81;4976449;28;20197;-77
2023/08/08 11:07:47;;;;;;;1.43;0.93;;;;;;;24.50;59.74;100285.25;4976312;28;20197;-79
2023/08/08 11:10:13;;;;;;;1.57;1.00;;;;;;;24.49;59.85;100288.84;4974932;28;20731;-77
2023/08/08 11:12:38;;;;;;;1.77;1.10;;;;;;;24.54;60.88;100285.88;4976974;28;20185;-77
2023/08/08 11:15:04;;;;;;;1.77;1.00;;;;;;;24.57;60.04;100281.25;4975871;28;20189;-77
2023/08/08 11:17:31;;;;;;;1.40;1.10;;;;;;;24.58;59.69;100274.97;4975784;28;20193;-79
2023/08/08 11:19:57;;;;;;;1.63;1.20;;;;;;;24.62;60.59;100281.75;4976005;28;20213;-77